sensor_id;sensor_type;location;lat;lon;timestamp;pressure;altitude;pressure_sealevel;temperature;humidity
38718;BME280;24468;52.128;9.278;2023-07-31T00:00:13;100130.19;;;19.51;100.00
38718;BME280;24468;52.128;9.278;2023-07-31T00:02:39;100130.66;;;19.35;100.00
38718;BME280;24468;52.128;9.278;2023-07-31T00:05:05;100120.84;;;19.53;100.00
38718;BME280;24468;52.128;9.278;2023-07-31T00:07:32;100130.38;;;19.38;100.00
38718;BME280;24468;52.128;9.278;2023-07-31T00:09:57;100115.94;;;19.78;100.00
38718;BME280;24468;52.128;9.278;2023-07-31T00:12:23;100121.81;;;19.52;100.00
38718;BME280;24468;52.128;9.278;2023-07-31T00:14:49;100109.69;;;19.66;100.00
38718;BME280;24468;52.128;9.278;2023-07-31T00:17:15;100102.25;;;19.47;100.00
38718;BME280;24468;52.128;9.278;2023-07-31T00:19:40;100107.56;;;19.70;100.00
38718;BME280;24468;52.128;9.278;2023-07-31T00:22:06;100101.13;;;19.81;100.00
38718;BME280;24468;52.128;9.278;2023-07-31T00:24:31;100099.53;;;19.57;100.00
38718;BME280;24468;52.128;9.278;2023-07-31T00:26:57;100088.41;;;19.70;100.00
38718;BME280;24468;52.128;9.278;2023-07-31T00:29:22;100088.88;;;19.33;100.00
38718;BME280;24468;52.128;9.278;2023-07-31T00:31:48;100099.44;;;19.17;100.00
38718;BME280;24468;52.128;9.278;2023-07-31T00:34:13;100089.28;;;18.98;100.00
38718;BME280;24468;52.128;9.278;2023-07-31T00:36:39;100089.19;;;18.88;100.00
38718;BME280;24468;52.128;9.278;2023-07-31T00:39:04;100084.78;;;18.97;100.00
38718;BME280;24468;52.128;9.278;2023-07-31T00:41:30;100098.38;;;18.55;100.00
38718;BME280;24468;52.128;9.278;2023-07-31T00:43:56;100089.38;;;18.96;100.00
38718;BME280;24468;52.128;9.278;2023-07-31T00:46:21;100079.50;;;19.05;100.00
38718;BME280;24468;52.128;9.278;2023-07-31T00:48:47;100082.72;;;18.89;100.00
38718;BME280;24468;52.128;9.278;2023-07-31T00:51:13;100079.28;;;19.39;100.00
38718;BME280;24468;52.128;9.278;2023-07-31T00:53:39;100072.75;;;19.30;100.00
38718;BME280;24468;52.128;9.278;2023-07-31T00:56:05;100069.44;;;19.05;100.00
38718;BME280;24468;52.128;9.278;2023-07-31T00:58:31;100077.78;;;19.55;100.00
38718;BME280;24468;52.128;9.278;2023-07-31T01:00:57;100067.28;;;19.61;100.00
38718;BME280;24468;52.128;9.278;2023-07-31T01:03:22;100060.16;;;19.69;100.00
38718;BME280;24468;52.128;9.278;2023-07-31T01:06:05;100052.75;;;19.29;100.00
38718;BME280;24468;52.128;9.278;2023-07-31T01:09:03;100051.06;;;19.38;100.00
38718;BME280;24468;52.128;9.278;2023-07-31T01:11:33;100049.63;;;19.34;100.00
38718;BME280;24468;52.128;9.278;2023-07-31T01:14:00;100038.63;;;19.86;100.00
38718;BME280;24468;52.128;9.278;2023-07-31T01:16:26;100036.25;;;19.10;100.00
38718;BME280;24468;52.128;9.278;2023-07-31T01:18:52;100033.56;;;19.20;100.00
38718;BME280;24468;52.128;9.278;2023-07-31T01:21:30;100035.28;;;19.21;100.00
38718;BME280;24468;52.128;9.278;2023-07-31T01:24:30;100043.47;;;18.90;100.00
38718;BME280;24468;52.128;9.278;2023-07-31T01:27:10;100044.59;;;18.55;100.00
38718;BME280;24468;52.128;9.278;2023-07-31T01:30:10;100051.47;;;18.50;100.00
38718;BME280;24468;52.128;9.278;2023-07-31T01:32:40;100046.50;;;18.11;100.00
38718;BME280;24468;52.128;9.278;2023-07-31T01:35:07;100040.97;;;18.34;100.00
38718;BME280;24468;52.128;9.278;2023-07-31T01:37:34;100038.50;;;18.31;100.00
38718;BME280;24468;52.128;9.278;2023-07-31T01:39:59;100036.16;;;17.83;100.00
38718;BME280;24468;52.128;9.278;2023-07-31T01:42:25;100037.47;;;17.77;100.00
38718;BME280;24468;52.128;9.278;2023-07-31T01:44:50;100032.38;;;18.06;100.00
38718;BME280;24468;52.128;9.278;2023-07-31T01:47:16;100025.91;;;18.18;100.00
38718;BME280;24468;52.128;9.278;2023-07-31T01:49:41;100029.44;;;18.30;100.00
38718;BME280;24468;52.128;9.278;2023-07-31T01:52:07;100032.22;;;18.19;100.00
38718;BME280;24468;52.128;9.278;2023-07-31T01:54:32;100032.19;;;17.87;100.00
38718;BME280;24468;52.128;9.278;2023-07-31T01:56:59;100022.94;;;18.10;100.00
38718;BME280;24468;52.128;9.278;2023-07-31T01:59:24;100023.38;;;18.27;100.00
38718;BME280;24468;52.128;9.278;2023-07-31T02:01:50;100013.88;;;18.42;100.00
38718;BME280;24468;52.128;9.278;2023-07-31T02:04:15;100006.63;;;18.52;100.00
38718;BME280;24468;52.128;9.278;2023-07-31T02:06:41;100011.13;;;18.42;100.00
38718;BME280;24468;52.128;9.278;2023-07-31T02:09:06;100018.59;;;18.40;100.00
38718;BME280;24468;52.128;9.278;2023-07-31T02:11:32;100015.41;;;18.35;100.00
38718;BME280;24468;52.128;9.278;2023-07-31T02:13:57;100017.81;;;18.49;100.00
38718;BME280;24468;52.128;9.278;2023-07-31T02:16:23;100008.72;;;18.28;100.00
38718;BME280;24468;52.128;9.278;2023-07-31T02:18:48;100008.06;;;18.03;100.00
38718;BME280;24468;52.128;9.278;2023-07-31T02:21:14;100004.97;;;18.29;100.00
38718;BME280;24468;52.128;9.278;2023-07-31T02:23:39;100000.25;;;18.31;100.00
38718;BME280;24468;52.128;9.278;2023-07-31T02:26:05;100001.22;;;18.41;100.00
38718;BME280;24468;52.128;9.278;2023-07-31T02:28:30;100005.66;;;18.74;100.00
38718;BME280;24468;52.128;9.278;2023-07-31T02:30:56;99991.84;;;18.76;100.00
38718;BME280;24468;52.128;9.278;2023-07-31T02:33:21;99995.78;;;18.83;100.00
38718;BME280;24468;52.128;9.278;2023-07-31T02:35:47;99998.22;;;18.76;100.00
38718;BME280;24468;52.128;9.278;2023-07-31T02:38:12;99995.25;;;18.68;100.00
38718;BME280;24468;52.128;9.278;2023-07-31T02:40:40;100001.28;;;18.72;100.00
38718;BME280;24468;52.128;9.278;2023-07-31T02:43:07;99989.50;;;18.71;100.00
38718;BME280;24468;52.128;9.278;2023-07-31T02:45:33;99995.97;;;18.49;100.00
38718;BME280;24468;52.128;9.278;2023-07-31T02:47:58;99988.31;;;18.43;100.00
38718;BME280;24468;52.128;9.278;2023-07-31T02:50:24;99998.22;;;18.44;100.00
38718;BME280;24468;52.128;9.278;2023-07-31T02:52:49;99992.75;;;18.44;100.00
38718;BME280;24468;52.128;9.278;2023-07-31T02:55:15;99987.78;;;18.49;100.00
38718;BME280;24468;52.128;9.278;2023-07-31T02:57:40;99979.91;;;18.35;100.00
38718;BME280;24468;52.128;9.278;2023-07-31T03:00:07;99986.84;;;18.60;100.00
38718;BME280;24468;52.128;9.278;2023-07-31T03:02:32;99983.69;;;18.64;100.00
38718;BME280;24468;52.128;9.278;2023-07-31T03:04:58;99985.91;;;18.71;100.00
38718;BME280;24468;52.128;9.278;2023-07-31T03:07:23;99974.84;;;18.72;100.00
38718;BME280;24468;52.128;9.278;2023-07-31T03:09:49;99985.41;;;18.98;100.00
38718;BME280;24468;52.128;9.278;2023-07-31T03:12:14;99987.56;;;18.41;100.00
38718;BME280;24468;52.128;9.278;2023-07-31T03:14:40;99974.84;;;18.72;100.00
38718;BME280;24468;52.128;9.278;2023-07-31T03:17:06;99977.28;;;19.17;100.00
38718;BME280;24468;52.128;9.278;2023-07-31T03:19:32;99971.63;;;19.49;100.00
38718;BME280;24468;52.128;9.278;2023-07-31T03:21:59;99977.19;;;19.69;100.00
38718;BME280;24468;52.128;9.278;2023-07-31T03:24:25;99973.34;;;19.10;100.00
38718;BME280;24468;52.128;9.278;2023-07-31T03:26:51;99979.69;;;19.10;100.00
38718;BME280;24468;52.128;9.278;2023-07-31T03:29:16;99975.91;;;19.02;100.00
38718;BME280;24468;52.128;9.278;2023-07-31T03:31:42;99972.50;;;19.09;100.00
38718;BME280;24468;52.128;9.278;2023-07-31T03:34:07;99973.16;;;19.02;100.00
38718;BME280;24468;52.128;9.278;2023-07-31T03:36:33;99970.69;;;19.29;100.00
38718;BME280;24468;52.128;9.278;2023-07-31T03:38:58;99977.50;;;19.04;100.00
38718;BME280;24468;52.128;9.278;2023-07-31T03:41:24;99974.00;;;18.93;100.00
38718;BME280;24468;52.128;9.278;2023-07-31T03:43:51;99974.97;;;19.22;100.00
38718;BME280;24468;52.128;9.278;2023-07-31T03:46:22;99977.69;;;19.13;100.00
38718;BME280;24468;52.128;9.278;2023-07-31T03:48:48;99974.53;;;19.17;100.00
38718;BME280;24468;52.128;9.278;2023-07-31T03:51:14;99968.25;;;19.26;100.00
38718;BME280;24468;52.128;9.278;2023-07-31T03:53:39;99968.06;;;18.87;100.00
38718;BME280;24468;52.128;9.278;2023-07-31T03:56:05;99968.06;;;19.18;100.00
38718;BME280;24468;52.128;9.278;2023-07-31T03:58:30;99963.53;;;18.98;100.00
38718;BME280;24468;52.128;9.278;2023-07-31T04:00:56;99954.94;;;19.12;100.00
38718;BME280;24468;52.128;9.278;2023-07-31T04:03:21;99964.28;;;18.79;100.00
38718;BME280;24468;52.128;9.278;2023-07-31T04:05:47;99956.09;;;19.19;100.00
38718;BME280;24468;52.128;9.278;2023-07-31T04:08:12;99958.06;;;19.38;100.00
38718;BME280;24468;52.128;9.278;2023-07-31T04:10:38;99947.81;;;19.71;100.00
38718;BME280;24468;52.128;9.278;2023-07-31T04:13:03;99947.47;;;19.64;100.00
38718;BME280;24468;52.128;9.278;2023-07-31T04:15:29;99947.56;;;19.33;100.00
38718;BME280;24468;52.128;9.278;2023-07-31T04:17:54;99935.34;;;19.47;100.00
38718;BME280;24468;52.128;9.278;2023-07-31T04:20:20;99945.97;;;19.81;100.00
38718;BME280;24468;52.128;9.278;2023-07-31T04:22:46;99936.41;;;19.66;100.00
38718;BME280;24468;52.128;9.278;2023-07-31T04:25:11;99938.28;;;19.25;100.00
38718;BME280;24468;52.128;9.278;2023-07-31T04:27:36;99940.38;;;19.52;100.00
38718;BME280;24468;52.128;9.278;2023-07-31T04:30:02;99937.22;;;19.57;100.00
38718;BME280;24468;52.128;9.278;2023-07-31T04:32:28;99920.44;;;19.30;100.00
38718;BME280;24468;52.128;9.278;2023-07-31T04:34:55;99928.28;;;19.45;100.00
38718;BME280;24468;52.128;9.278;2023-07-31T04:37:20;99925.56;;;19.45;100.00
38718;BME280;24468;52.128;9.278;2023-07-31T04:39:46;99931.59;;;19.08;100.00
38718;BME280;24468;52.128;9.278;2023-07-31T04:42:13;99925.09;;;18.27;100.00
38718;BME280;24468;52.128;9.278;2023-07-31T04:44:39;99933.94;;;19.22;100.00
38718;BME280;24468;52.128;9.278;2023-07-31T04:47:04;99932.66;;;18.86;100.00
38718;BME280;24468;52.128;9.278;2023-07-31T04:49:32;99936.19;;;17.82;100.00
38718;BME280;24468;52.128;9.278;2023-07-31T04:51:58;99938.69;;;18.06;100.00
38718;BME280;24468;52.128;9.278;2023-07-31T04:54:23;99949.09;;;17.80;100.00
38718;BME280;24468;52.128;9.278;2023-07-31T04:56:49;99937.94;;;18.57;100.00
38718;BME280;24468;52.128;9.278;2023-07-31T04:59:14;99945.63;;;17.66;100.00
38718;BME280;24468;52.128;9.278;2023-07-31T05:01:40;99959.22;;;17.34;100.00
38718;BME280;24468;52.128;9.278;2023-07-31T05:04:05;99947.53;;;17.43;100.00
38718;BME280;24468;52.128;9.278;2023-07-31T05:06:31;99960.56;;;17.40;100.00
38718;BME280;24468;52.128;9.278;2023-07-31T05:08:56;99951.72;;;17.59;100.00
38718;BME280;24468;52.128;9.278;2023-07-31T05:11:22;99951.91;;;18.21;100.00
38718;BME280;24468;52.128;9.278;2023-07-31T05:13:47;99951.91;;;17.78;100.00
38718;BME280;24468;52.128;9.278;2023-07-31T05:16:13;99948.31;;;18.21;100.00
38718;BME280;24468;52.128;9.278;2023-07-31T05:18:38;99954.06;;;17.74;100.00
38718;BME280;24468;52.128;9.278;2023-07-31T05:21:04;99958.16;;;17.58;100.00
38718;BME280;24468;52.128;9.278;2023-07-31T05:23:29;99965.75;;;17.43;100.00
38718;BME280;24468;52.128;9.278;2023-07-31T05:26:06;99948.03;;;17.48;100.00
38718;BME280;24468;52.128;9.278;2023-07-31T05:28:34;99947.91;;;17.27;100.00
38718;BME280;24468;52.128;9.278;2023-07-31T05:31:01;99946.88;;;17.62;100.00
38718;BME280;24468;52.128;9.278;2023-07-31T05:33:27;99952.84;;;17.56;100.00
38718;BME280;24468;52.128;9.278;2023-07-31T05:35:53;99949.53;;;17.52;100.00
38718;BME280;24468;52.128;9.278;2023-07-31T05:38:18;99936.97;;;18.05;100.00
38718;BME280;24468;52.128;9.278;2023-07-31T05:40:44;99947.31;;;17.90;100.00
38718;BME280;24468;52.128;9.278;2023-07-31T05:43:09;99949.50;;;17.64;100.00
38718;BME280;24468;52.128;9.278;2023-07-31T05:45:35;99945.03;;;17.51;100.00
38718;BME280;24468;52.128;9.278;2023-07-31T05:48:02;99945.41;;;17.58;100.00
38718;BME280;24468;52.128;9.278;2023-07-31T05:50:28;99933.78;;;17.45;100.00
38718;BME280;24468;52.128;9.278;2023-07-31T05:52:53;99940.22;;;17.44;100.00
38718;BME280;24468;52.128;9.278;2023-07-31T05:55:19;99942.72;;;17.13;100.00
38718;BME280;24468;52.128;9.278;2023-07-31T05:57:45;99927.34;;;17.34;100.00
38718;BME280;24468;52.128;9.278;2023-07-31T06:00:12;99941.41;;;17.62;100.00
38718;BME280;24468;52.128;9.278;2023-07-31T06:02:38;99939.75;;;17.16;100.00
38718;BME280;24468;52.128;9.278;2023-07-31T06:05:05;99935.41;;;17.25;100.00
38718;BME280;24468;52.128;9.278;2023-07-31T06:07:32;99943.44;;;17.38;100.00
38718;BME280;24468;52.128;9.278;2023-07-31T06:09:57;99936.66;;;17.21;100.00
38718;BME280;24468;52.128;9.278;2023-07-31T06:12:31;99936.78;;;17.08;100.00
38718;BME280;24468;52.128;9.278;2023-07-31T06:14:57;99952.53;;;16.93;100.00
38718;BME280;24468;52.128;9.278;2023-07-31T06:17:22;99949.69;;;17.06;100.00
38718;BME280;24468;52.128;9.278;2023-07-31T06:19:49;99946.72;;;16.98;100.00
38718;BME280;24468;52.128;9.278;2023-07-31T06:22:15;99941.88;;;17.13;100.00
38718;BME280;24468;52.128;9.278;2023-07-31T06:24:41;99946.31;;;17.25;100.00
38718;BME280;24468;52.128;9.278;2023-07-31T06:27:06;99941.38;;;16.96;100.00
38718;BME280;24468;52.128;9.278;2023-07-31T06:29:32;99946.72;;;17.09;100.00
38718;BME280;24468;52.128;9.278;2023-07-31T06:31:59;99947.69;;;17.19;100.00
38718;BME280;24468;52.128;9.278;2023-07-31T06:34:24;99949.56;;;16.96;100.00
38718;BME280;24468;52.128;9.278;2023-07-31T06:36:50;99943.19;;;17.41;100.00
38718;BME280;24468;52.128;9.278;2023-07-31T06:39:15;99934.69;;;17.00;100.00
38718;BME280;24468;52.128;9.278;2023-07-31T06:41:42;99941.09;;;17.33;100.00
38718;BME280;24468;52.128;9.278;2023-07-31T06:44:08;99947.19;;;17.37;100.00
38718;BME280;24468;52.128;9.278;2023-07-31T06:46:34;99949.78;;;17.27;100.00
38718;BME280;24468;52.128;9.278;2023-07-31T06:48:59;99932.28;;;17.41;100.00
38718;BME280;24468;52.128;9.278;2023-07-31T06:51:25;99935.88;;;17.52;100.00
38718;BME280;24468;52.128;9.278;2023-07-31T06:53:50;99922.59;;;17.59;100.00
38718;BME280;24468;52.128;9.278;2023-07-31T06:56:16;99935.31;;;18.13;100.00
38718;BME280;24468;52.128;9.278;2023-07-31T06:58:41;99929.34;;;18.19;100.00
38718;BME280;24468;52.128;9.278;2023-07-31T07:01:07;99912.97;;;18.40;100.00
38718;BME280;24468;52.128;9.278;2023-07-31T07:03:32;99925.25;;;18.14;100.00
38718;BME280;24468;52.128;9.278;2023-07-31T07:05:58;99924.63;;;18.21;100.00
38718;BME280;24468;52.128;9.278;2023-07-31T07:08:24;99918.88;;;18.45;100.00
38718;BME280;24468;52.128;9.278;2023-07-31T07:10:50;99903.25;;;18.27;100.00
38718;BME280;24468;52.128;9.278;2023-07-31T07:13:16;99896.50;;;18.31;100.00
38718;BME280;24468;52.128;9.278;2023-07-31T07:15:47;99904.66;;;17.89;100.00
38718;BME280;24468;52.128;9.278;2023-07-31T07:18:13;99905.31;;;17.70;100.00
38718;BME280;24468;52.128;9.278;2023-07-31T07:20:39;99918.22;;;17.68;100.00
38718;BME280;24468;52.128;9.278;2023-07-31T07:23:05;99916.81;;;17.30;100.00
38718;BME280;24468;52.128;9.278;2023-07-31T07:25:30;99926.06;;;17.61;100.00
38718;BME280;24468;52.128;9.278;2023-07-31T07:27:56;99927.47;;;17.33;100.00
38718;BME280;24468;52.128;9.278;2023-07-31T07:30:21;99917.91;;;17.50;100.00
38718;BME280;24468;52.128;9.278;2023-07-31T07:32:49;99932.75;;;17.57;100.00
38718;BME280;24468;52.128;9.278;2023-07-31T07:35:14;99923.25;;;17.95;100.00
38718;BME280;24468;52.128;9.278;2023-07-31T07:37:40;99929.03;;;18.02;100.00
38718;BME280;24468;52.128;9.278;2023-07-31T07:40:06;99932.81;;;18.21;100.00
38718;BME280;24468;52.128;9.278;2023-07-31T07:42:32;99920.53;;;18.37;100.00
38718;BME280;24468;52.128;9.278;2023-07-31T07:44:58;99929.66;;;18.47;100.00
38718;BME280;24468;52.128;9.278;2023-07-31T07:47:23;99928.84;;;18.56;100.00
38718;BME280;24468;52.128;9.278;2023-07-31T07:49:49;99931.09;;;18.72;100.00
38718;BME280;24468;52.128;9.278;2023-07-31T07:52:14;99922.50;;;18.98;100.00
38718;BME280;24468;52.128;9.278;2023-07-31T07:54:40;99925.09;;;18.99;100.00
38718;BME280;24468;52.128;9.278;2023-07-31T07:57:05;99921.53;;;18.78;100.00
38718;BME280;24468;52.128;9.278;2023-07-31T07:59:31;99925.41;;;18.75;100.00
38718;BME280;24468;52.128;9.278;2023-07-31T08:01:56;99914.66;;;18.83;100.00
38718;BME280;24468;52.128;9.278;2023-07-31T08:04:23;99924.34;;;18.97;100.00
38718;BME280;24468;52.128;9.278;2023-07-31T08:06:48;99925.34;;;18.65;100.00
38718;BME280;24468;52.128;9.278;2023-07-31T08:09:14;99916.94;;;18.78;100.00
38718;BME280;24468;52.128;9.278;2023-07-31T08:11:39;99923.16;;;18.38;100.00
38718;BME280;24468;52.128;9.278;2023-07-31T08:14:05;99930.88;;;18.33;100.00
38718;BME280;24468;52.128;9.278;2023-07-31T08:16:30;99915.03;;;18.27;100.00
38718;BME280;24468;52.128;9.278;2023-07-31T08:18:56;99909.94;;;18.22;100.00
38718;BME280;24468;52.128;9.278;2023-07-31T08:21:23;99922.69;;;18.33;100.00
38718;BME280;24468;52.128;9.278;2023-07-31T08:23:49;99920.25;;;17.98;100.00
38718;BME280;24468;52.128;9.278;2023-07-31T08:26:16;99917.22;;;17.69;100.00
38718;BME280;24468;52.128;9.278;2023-07-31T08:28:42;99915.75;;;18.08;100.00
38718;BME280;24468;52.128;9.278;2023-07-31T08:31:08;99917.91;;;17.93;100.00
38718;BME280;24468;52.128;9.278;2023-07-31T08:33:34;99909.59;;;17.51;100.00
38718;BME280;24468;52.128;9.278;2023-07-31T08:35:59;99899.31;;;18.19;100.00
38718;BME280;24468;52.128;9.278;2023-07-31T08:38:26;99892.22;;;17.96;100.00
38718;BME280;24468;52.128;9.278;2023-07-31T08:40:52;99899.78;;;18.25;100.00
38718;BME280;24468;52.128;9.278;2023-07-31T08:43:20;99884.44;;;18.54;100.00
38718;BME280;24468;52.128;9.278;2023-07-31T08:45:47;99890.41;;;18.48;100.00
38718;BME280;24468;52.128;9.278;2023-07-31T08:48:15;99888.13;;;18.43;100.00
38718;BME280;24468;52.128;9.278;2023-07-31T08:50:41;99880.06;;;18.73;100.00
38718;BME280;24468;52.128;9.278;2023-07-31T08:53:07;99878.84;;;19.17;100.00
38718;BME280;24468;52.128;9.278;2023-07-31T08:55:33;99874.47;;;19.05;100.00
38718;BME280;24468;52.128;9.278;2023-07-31T08:57:59;99868.75;;;19.18;100.00
38718;BME280;24468;52.128;9.278;2023-07-31T09:00:26;99863.25;;;18.98;100.00
38718;BME280;24468;52.128;9.278;2023-07-31T09:03:09;99861.19;;;19.50;100.00
38718;BME280;24468;52.128;9.278;2023-07-31T09:05:36;99856.44;;;19.43;100.00
38718;BME280;24468;52.128;9.278;2023-07-31T09:08:05;99863.94;;;19.50;100.00
38718;BME280;24468;52.128;9.278;2023-07-31T09:10:31;99856.16;;;19.55;100.00
38718;BME280;24468;52.128;9.278;2023-07-31T09:12:57;99863.25;;;19.87;100.00
38718;BME280;24468;52.128;9.278;2023-07-31T09:15:24;99863.78;;;19.52;100.00
38718;BME280;24468;52.128;9.278;2023-07-31T09:18:00;99850.59;;;19.86;100.00
38718;BME280;24468;52.128;9.278;2023-07-31T09:20:28;99852.47;;;19.76;100.00
38718;BME280;24468;52.128;9.278;2023-07-31T09:22:55;99855.75;;;20.09;100.00
38718;BME280;24468;52.128;9.278;2023-07-31T09:25:25;99853.16;;;20.27;100.00
38718;BME280;24468;52.128;9.278;2023-07-31T09:28:04;99852.69;;;20.31;100.00
38718;BME280;24468;52.128;9.278;2023-07-31T09:30:30;99832.13;;;20.08;100.00
38718;BME280;24468;52.128;9.278;2023-07-31T09:33:04;99841.03;;;20.19;100.00
38718;BME280;24468;52.128;9.278;2023-07-31T09:35:33;99831.31;;;20.35;100.00
38718;BME280;24468;52.128;9.278;2023-07-31T09:38:05;99839.06;;;19.73;100.00
38718;BME280;24468;52.128;9.278;2023-07-31T09:40:37;99833.84;;;20.09;100.00
38718;BME280;24468;52.128;9.278;2023-07-31T09:43:11;99833.25;;;19.37;100.00
38718;BME280;24468;52.128;9.278;2023-07-31T09:45:42;99820.75;;;19.64;100.00
38718;BME280;24468;52.128;9.278;2023-07-31T09:48:16;99830.25;;;19.60;100.00
38718;BME280;24468;52.128;9.278;2023-07-31T09:50:47;99828.50;;;19.39;100.00
38718;BME280;24468;52.128;9.278;2023-07-31T09:53:13;99816.88;;;19.66;100.00
38718;BME280;24468;52.128;9.278;2023-07-31T09:55:40;99818.28;;;19.61;100.00
38718;BME280;24468;52.128;9.278;2023-07-31T09:58:09;99847.88;;;19.17;100.00
38718;BME280;24468;52.128;9.278;2023-07-31T10:00:35;99820.41;;;19.18;100.00
38718;BME280;24468;52.128;9.278;2023-07-31T10:03:08;99809.81;;;19.64;100.00
38718;BME280;24468;52.128;9.278;2023-07-31T10:05:41;99818.16;;;19.82;100.00
38718;BME280;24468;52.128;9.278;2023-07-31T10:08:09;99811.25;;;19.97;100.00
38718;BME280;24468;52.128;9.278;2023-07-31T10:10:36;99794.69;;;19.79;100.00
38718;BME280;24468;52.128;9.278;2023-07-31T10:13:04;99806.78;;;19.76;100.00
38718;BME280;24468;52.128;9.278;2023-07-31T10:15:30;99798.06;;;20.20;100.00
38718;BME280;24468;52.128;9.278;2023-07-31T10:17:58;99791.09;;;20.55;100.00
38718;BME280;24468;52.128;9.278;2023-07-31T10:20:24;99779.56;;;20.32;100.00
38718;BME280;24468;52.128;9.278;2023-07-31T10:22:51;99800.34;;;20.34;100.00
38718;BME280;24468;52.128;9.278;2023-07-31T10:25:18;99795.72;;;20.35;100.00
38718;BME280;24468;52.128;9.278;2023-07-31T10:27:45;99808.94;;;19.53;100.00
38718;BME280;24468;52.128;9.278;2023-07-31T10:30:17;99801.59;;;19.93;100.00
38718;BME280;24468;52.128;9.278;2023-07-31T10:32:43;99795.38;;;20.10;100.00
38718;BME280;24468;52.128;9.278;2023-07-31T10:35:11;99807.13;;;20.30;100.00
38718;BME280;24468;52.128;9.278;2023-07-31T10:37:42;99800.09;;;20.18;100.00
38718;BME280;24468;52.128;9.278;2023-07-31T10:40:12;99800.34;;;20.34;100.00
38718;BME280;24468;52.128;9.278;2023-07-31T10:42:49;99788.75;;;20.03;100.00
38718;BME280;24468;52.128;9.278;2023-07-31T10:45:34;99780.16;;;19.79;100.00
38718;BME280;24468;52.128;9.278;2023-07-31T10:48:22;99791.19;;;20.16;100.00
38718;BME280;24468;52.128;9.278;2023-07-31T10:50:51;99782.25;;;19.36;100.00
38718;BME280;24468;52.128;9.278;2023-07-31T10:53:32;99785.72;;;20.16;100.00
38718;BME280;24468;52.128;9.278;2023-07-31T10:56:02;99776.69;;;20.33;100.00
38718;BME280;24468;52.128;9.278;2023-07-31T10:58:29;99772.78;;;20.73;100.00
38718;BME280;24468;52.128;9.278;2023-07-31T11:01:07;99773.88;;;20.62;100.00
38718;BME280;24468;52.128;9.278;2023-07-31T11:03:50;99775.06;;;20.60;100.00
38718;BME280;24468;52.128;9.278;2023-07-31T11:06:18;99784.50;;;20.28;100.00
38718;BME280;24468;52.128;9.278;2023-07-31T11:08:49;99769.91;;;19.71;100.00
38718;BME280;24468;52.128;9.278;2023-07-31T11:11:18;99765.25;;;20.01;100.00
38718;BME280;24468;52.128;9.278;2023-07-31T11:13:52;99773.47;;;20.10;100.00
38718;BME280;24468;52.128;9.278;2023-07-31T11:16:21;99765.00;;;19.55;100.00
38718;BME280;24468;52.128;9.278;2023-07-31T11:18:48;99776.66;;;19.96;100.00
38718;BME280;24468;52.128;9.278;2023-07-31T11:21:16;99782.72;;;20.47;100.00
38718;BME280;24468;52.128;9.278;2023-07-31T11:23:47;99775.53;;;20.36;100.00
38718;BME280;24468;52.128;9.278;2023-07-31T11:26:13;99767.94;;;20.67;100.00
38718;BME280;24468;52.128;9.278;2023-07-31T11:28:39;99770.44;;;20.60;100.00
38718;BME280;24468;52.128;9.278;2023-07-31T11:31:09;99773.53;;;20.75;100.00
38718;BME280;24468;52.128;9.278;2023-07-31T11:33:35;99773.41;;;20.95;100.00
38718;BME280;24468;52.128;9.278;2023-07-31T11:36:01;99769.25;;;20.63;100.00
38718;BME280;24468;52.128;9.278;2023-07-31T11:38:28;99777.53;;;20.43;100.00
38718;BME280;24468;52.128;9.278;2023-07-31T11:41:00;99772.31;;;20.60;100.00
38718;BME280;24468;52.128;9.278;2023-07-31T11:43:28;99773.53;;;20.38;100.00
38718;BME280;24468;52.128;9.278;2023-07-31T11:45:59;99759.91;;;20.18;100.00
38718;BME280;24468;52.128;9.278;2023-07-31T11:48:31;99766.09;;;20.48;100.00
38718;BME280;24468;52.128;9.278;2023-07-31T11:51:00;99767.56;;;20.42;100.00
38718;BME280;24468;52.128;9.278;2023-07-31T11:53:49;99765.44;;;20.36;100.00
38718;BME280;24468;52.128;9.278;2023-07-31T11:56:20;99772.56;;;20.67;100.00
38718;BME280;24468;52.128;9.278;2023-07-31T11:58:49;99769.75;;;20.39;100.00
38718;BME280;24468;52.128;9.278;2023-07-31T12:01:16;99769.19;;;19.88;100.00
38718;BME280;24468;52.128;9.278;2023-07-31T12:03:44;99755.97;;;20.21;100.00
38718;BME280;24468;52.128;9.278;2023-07-31T12:06:11;99765.63;;;20.25;100.00
38718;BME280;24468;52.128;9.278;2023-07-31T12:08:36;99764.53;;;20.55;100.00
38718;BME280;24468;52.128;9.278;2023-07-31T12:11:04;99768.81;;;20.20;100.00
38718;BME280;24468;52.128;9.278;2023-07-31T12:13:31;99757.69;;;20.69;100.00
38718;BME280;24468;52.128;9.278;2023-07-31T12:16:02;99740.59;;;20.85;100.00
38718;BME280;24468;52.128;9.278;2023-07-31T12:18:33;99749.22;;;20.62;100.00
38718;BME280;24468;52.128;9.278;2023-07-31T12:21:02;99764.72;;;20.34;100.00
38718;BME280;24468;52.128;9.278;2023-07-31T12:23:30;99759.09;;;20.36;100.00
38718;BME280;24468;52.128;9.278;2023-07-31T12:26:11;99753.44;;;21.02;100.00
38718;BME280;24468;52.128;9.278;2023-07-31T12:28:47;99753.75;;;20.34;100.00
38718;BME280;24468;52.128;9.278;2023-07-31T12:31:20;99750.69;;;20.84;100.00
38718;BME280;24468;52.128;9.278;2023-07-31T12:33:49;99742.41;;;20.67;100.00
38718;BME280;24468;52.128;9.278;2023-07-31T12:36:22;99729.34;;;21.24;100.00
38718;BME280;24468;52.128;9.278;2023-07-31T12:38:50;99729.72;;;21.29;100.00
38718;BME280;24468;52.128;9.278;2023-07-31T12:41:16;99709.81;;;21.09;100.00
38718;BME280;24468;52.128;9.278;2023-07-31T12:43:44;99721.16;;;21.14;100.00
38718;BME280;24468;52.128;9.278;2023-07-31T12:46:11;99697.34;;;21.32;100.00
38718;BME280;24468;52.128;9.278;2023-07-31T12:48:38;99738.06;;;20.74;100.00